sensor_id;sensor_type;location;lat;lon;timestamp;P1;durP1;ratioP1;P2;durP2;ratioP2
83055;SDS011;72881;43.514;1.510;2023-12-20T00:01:38;5.93;;;4.00;;
83055;SDS011;72881;43.514;1.510;2023-12-20T00:04:04;5.50;;;3.80;;
83055;SDS011;72881;43.514;1.510;2023-12-20T00:06:29;5.40;;;3.83;;
83055;SDS011;72881;43.514;1.510;2023-12-20T00:08:55;6.43;;;3.83;;
83055;SDS011;72881;43.514;1.510;2023-12-20T00:11:21;6.25;;;3.72;;
83055;SDS011;72881;43.514;1.510;2023-12-20T00:13:46;5.13;;;3.75;;
83055;SDS011;72881;43.514;1.510;2023-12-20T00:16:11;4.80;;;3.40;;
83055;SDS011;72881;43.514;1.510;2023-12-20T00:18:37;5.97;;;3.97;;
83055;SDS011;72881;43.514;1.510;2023-12-20T00:21:02;5.00;;;3.47;;
83055;SDS011;72881;43.514;1.510;2023-12-20T00:23:28;5.45;;;3.58;;
83055;SDS011;72881;43.514;1.510;2023-12-20T00:25:54;5.82;;;3.20;;
83055;SDS011;72881;43.514;1.510;2023-12-20T00:28:19;4.82;;;3.25;;
83055;SDS011;72881;43.514;1.510;2023-12-20T00:30:45;4.65;;;3.45;;
83055;SDS011;72881;43.514;1.510;2023-12-20T00:33:10;6.15;;;3.45;;
83055;SDS011;72881;43.514;1.510;2023-12-20T00:35:36;5.70;;;3.67;;
83055;SDS011;72881;43.514;1.510;2023-12-20T00:38:01;4.97;;;3.33;;
83055;SDS011;72881;43.514;1.510;2023-12-20T00:40:27;5.80;;;3.55;;
83055;SDS011;72881;43.514;1.510;2023-12-20T00:42:52;4.90;;;3.60;;
83055;SDS011;72881;43.514;1.510;2023-12-20T00:45:18;4.05;;;3.10;;
83055;SDS011;72881;43.514;1.510;2023-12-20T00:47:43;4.32;;;3.33;;
83055;SDS011;72881;43.514;1.510;2023-12-20T00:50:09;4.78;;;3.38;;
83055;SDS011;72881;43.514;1.510;2023-12-20T00:52:34;4.00;;;3.15;;
83055;SDS011;72881;43.514;1.510;2023-12-20T00:55:00;5.05;;;3.30;;
83055;SDS011;72881;43.514;1.510;2023-12-20T00:57:25;4.43;;;3.08;;
83055;SDS011;72881;43.514;1.510;2023-12-20T00:59:51;3.80;;;2.80;;
83055;SDS011;72881;43.514;1.510;2023-12-20T01:02:16;5.43;;;3.00;;
83055;SDS011;72881;43.514;1.510;2023-12-20T01:04:41;4.95;;;3.00;;
83055;SDS011;72881;43.514;1.510;2023-12-20T01:07:07;4.75;;;3.35;;
83055;SDS011;72881;43.514;1.510;2023-12-20T01:09:33;5.88;;;3.25;;
83055;SDS011;72881;43.514;1.510;2023-12-20T01:11:58;5.03;;;3.35;;
83055;SDS011;72881;43.514;1.510;2023-12-20T01:14:24;4.20;;;3.28;;
83055;SDS011;72881;43.514;1.510;2023-12-20T01:16:49;4.60;;;3.03;;
83055;SDS011;72881;43.514;1.510;2023-12-20T01:19:15;3.63;;;2.85;;
83055;SDS011;72881;43.514;1.510;2023-12-20T01:21:41;5.47;;;3.25;;
83055;SDS011;72881;43.514;1.510;2023-12-20T01:24:06;5.47;;;3.03;;
83055;SDS011;72881;43.514;1.510;2023-12-20T01:26:32;4.78;;;3.08;;
83055;SDS011;72881;43.514;1.510;2023-12-20T01:28:57;4.47;;;3.03;;
83055;SDS011;72881;43.514;1.510;2023-12-20T01:31:23;4.35;;;2.90;;
83055;SDS011;72881;43.514;1.510;2023-12-20T01:33:48;4.35;;;2.92;;
83055;SDS011;72881;43.514;1.510;2023-12-20T01:36:13;4.95;;;3.10;;
83055;SDS011;72881;43.514;1.510;2023-12-20T01:38:39;5.32;;;3.00;;
83055;SDS011;72881;43.514;1.510;2023-12-20T01:41:05;4.43;;;3.10;;
83055;SDS011;72881;43.514;1.510;2023-12-20T01:43:30;4.85;;;3.00;;
83055;SDS011;72881;43.514;1.510;2023-12-20T01:45:56;4.00;;;3.00;;
83055;SDS011;72881;43.514;1.510;2023-12-20T01:48:22;5.10;;;3.10;;
83055;SDS011;72881;43.514;1.510;2023-12-20T01:50:48;5.10;;;3.10;;
83055;SDS011;72881;43.514;1.510;2023-12-20T01:53:14;4.35;;;2.78;;
83055;SDS011;72881;43.514;1.510;2023-12-20T01:55:40;4.40;;;2.78;;
83055;SDS011;72881;43.514;1.510;2023-12-20T01:58:09;4.78;;;2.70;;
83055;SDS011;72881;43.514;1.510;2023-12-20T02:00:35;4.07;;;2.58;;
83055;SDS011;72881;43.514;1.510;2023-12-20T02:03:02;5.53;;;2.90;;
83055;SDS011;72881;43.514;1.510;2023-12-20T02:05:28;3.58;;;2.70;;
83055;SDS011;72881;43.514;1.510;2023-12-20T02:07:54;4.13;;;2.80;;
83055;SDS011;72881;43.514;1.510;2023-12-20T02:10:20;3.83;;;2.83;;
83055;SDS011;72881;43.514;1.510;2023-12-20T02:12:45;4.55;;;2.83;;
83055;SDS011;72881;43.514;1.510;2023-12-20T02:15:11;3.30;;;2.63;;
83055;SDS011;72881;43.514;1.510;2023-12-20T02:17:36;3.60;;;2.63;;
83055;SDS011;72881;43.514;1.510;2023-12-20T02:20:03;4.30;;;2.85;;
83055;SDS011;72881;43.514;1.510;2023-12-20T02:22:30;3.80;;;2.70;;
83055;SDS011;72881;43.514;1.510;2023-12-20T02:24:56;4.00;;;2.50;;
83055;SDS011;72881;43.514;1.510;2023-12-20T02:27:21;3.58;;;2.42;;
83055;SDS011;72881;43.514;1.510;2023-12-20T02:29:48;3.45;;;2.70;;
83055;SDS011;72881;43.514;1.510;2023-12-20T02:32:13;5.28;;;2.92;;
83055;SDS011;72881;43.514;1.510;2023-12-20T02:34:39;5.60;;;2.95;;
83055;SDS011;72881;43.514;1.510;2023-12-20T02:37:04;3.63;;;2.63;;
83055;SDS011;72881;43.514;1.510;2023-12-20T02:39:29;3.67;;;2.63;;
83055;SDS011;72881;43.514;1.510;2023-12-20T02:41:55;4.47;;;2.78;;
83055;SDS011;72881;43.514;1.510;2023-12-20T02:44:20;3.90;;;2.63;;
83055;SDS011;72881;43.514;1.510;2023-12-20T02:46:45;3.70;;;2.53;;
83055;SDS011;72881;43.514;1.510;2023-12-20T02:49:11;3.80;;;2.70;;
83055;SDS011;72881;43.514;1.510;2023-12-20T02:51:36;4.50;;;2.80;;
83055;SDS011;72881;43.514;1.510;2023-12-20T02:54:03;3.90;;;2.60;;
83055;SDS011;72881;43.514;1.510;2023-12-20T02:56:29;3.92;;;2.67;;
83055;SDS011;72881;43.514;1.510;2023-12-20T02:58:54;3.88;;;2.40;;
83055;SDS011;72881;43.514;1.510;2023-12-20T03:01:20;5.20;;;2.55;;
83055;SDS011;72881;43.514;1.510;2023-12-20T03:03:45;3.72;;;2.60;;
83055;SDS011;72881;43.514;1.510;2023-12-20T03:06:11;4.30;;;2.60;;
83055;SDS011;72881;43.514;1.510;2023-12-20T03:08:36;3.50;;;2.47;;
83055;SDS011;72881;43.514;1.510;2023-12-20T03:11:02;3.88;;;2.47;;
83055;SDS011;72881;43.514;1.510;2023-12-20T03:13:27;4.45;;;2.60;;
83055;SDS011;72881;43.514;1.510;2023-12-20T03:15:52;3.35;;;2.45;;
83055;SDS011;72881;43.514;1.510;2023-12-20T03:18:18;3.47;;;2.78;;
83055;SDS011;72881;43.514;1.510;2023-12-20T03:20:43;3.72;;;2.70;;
83055;SDS011;72881;43.514;1.510;2023-12-20T03:23:09;3.33;;;2.33;;
83055;SDS011;72881;43.514;1.510;2023-12-20T03:25:34;3.78;;;2.28;;
83055;SDS011;72881;43.514;1.510;2023-12-20T03:28:00;4.18;;;2.55;;
83055;SDS011;72881;43.514;1.510;2023-12-20T03:30:25;3.40;;;2.17;;
83055;SDS011;72881;43.514;1.510;2023-12-20T03:32:51;3.10;;;2.20;;
83055;SDS011;72881;43.514;1.510;2023-12-20T03:35:16;3.85;;;2.42;;
83055;SDS011;72881;43.514;1.510;2023-12-20T03:37:41;3.88;;;2.47;;
83055;SDS011;72881;43.514;1.510;2023-12-20T03:40:07;3.55;;;2.17;;
83055;SDS011;72881;43.514;1.510;2023-12-20T03:42:32;3.42;;;2.33;;
83055;SDS011;72881;43.514;1.510;2023-12-20T03:44:58;3.65;;;2.30;;
83055;SDS011;72881;43.514;1.510;2023-12-20T03:47:23;3.20;;;2.25;;
83055;SDS011;72881;43.514;1.510;2023-12-20T03:49:48;4.53;;;2.15;;
83055;SDS011;72881;43.514;1.510;2023-12-20T03:52:14;3.60;;;2.38;;
83055;SDS011;72881;43.514;1.510;2023-12-20T03:54:39;3.78;;;2.40;;
83055;SDS011;72881;43.514;1.510;2023-12-20T03:57:06;3.13;;;2.40;;
83055;SDS011;72881;43.514;1.510;2023-12-20T03:59:35;3.63;;;2.22;;
83055;SDS011;72881;43.514;1.510;2023-12-20T04:02:01;3.65;;;2.30;;
83055;SDS011;72881;43.514;1.510;2023-12-20T04:04:27;3.92;;;2.42;;
83055;SDS011;72881;43.514;1.510;2023-12-20T04:06:52;2.97;;;2.10;;
83055;SDS011;72881;43.514;1.510;2023-12-20T04:09:18;2.90;;;2.28;;
83055;SDS011;72881;43.514;1.510;2023-12-20T04:11:43;3.90;;;2.53;;
83055;SDS011;72881;43.514;1.510;2023-12-20T04:14:08;3.22;;;2.10;;
83055;SDS011;72881;43.514;1.510;2023-12-20T04:16:35;3.00;;;2.00;;
83055;SDS011;72881;43.514;1.510;2023-12-20T04:19:00;3.10;;;2.22;;
83055;SDS011;72881;43.514;1.510;2023-12-20T04:21:26;2.78;;;2.15;;
83055;SDS011;72881;43.514;1.510;2023-12-20T04:23:51;3.22;;;2.30;;
83055;SDS011;72881;43.514;1.510;2023-12-20T04:26:17;2.83;;;2.20;;
83055;SDS011;72881;43.514;1.510;2023-12-20T04:28:42;3.10;;;2.20;;
83055;SDS011;72881;43.514;1.510;2023-12-20T04:31:07;3.70;;;2.13;;
83055;SDS011;72881;43.514;1.510;2023-12-20T04:33:33;3.17;;;2.20;;
83055;SDS011;72881;43.514;1.510;2023-12-20T04:35:58;2.90;;;2.05;;
83055;SDS011;72881;43.514;1.510;2023-12-20T04:38:25;2.85;;;2.05;;
83055;SDS011;72881;43.514;1.510;2023-12-20T04:40:50;2.67;;;1.92;;
83055;SDS011;72881;43.514;1.510;2023-12-20T04:43:16;3.00;;;2.00;;
83055;SDS011;72881;43.514;1.510;2023-12-20T04:45:41;2.78;;;2.00;;
83055;SDS011;72881;43.514;1.510;2023-12-20T04:48:07;3.15;;;1.95;;
83055;SDS011;72881;43.514;1.510;2023-12-20T04:50:32;3.40;;;2.10;;
83055;SDS011;72881;43.514;1.510;2023-12-20T04:52:58;3.20;;;2.20;;
83055;SDS011;72881;43.514;1.510;2023-12-20T04:55:23;3.65;;;2.15;;
83055;SDS011;72881;43.514;1.510;2023-12-20T04:57:49;2.60;;;2.08;;
83055;SDS011;72881;43.514;1.510;2023-12-20T05:00:14;3.10;;;1.83;;
83055;SDS011;72881;43.514;1.510;2023-12-20T05:02:40;3.35;;;2.30;;
83055;SDS011;72881;43.514;1.510;2023-12-20T05:05:06;2.55;;;2.00;;
83055;SDS011;72881;43.514;1.510;2023-12-20T05:07:31;2.72;;;2.00;;
83055;SDS011;72881;43.514;1.510;2023-12-20T05:09:57;2.60;;;1.90;;
83055;SDS011;72881;43.514;1.510;2023-12-20T05:12:23;2.72;;;1.60;;
83055;SDS011;72881;43.514;1.510;2023-12-20T05:14:48;4.13;;;1.90;;
83055;SDS011;72881;43.514;1.510;2023-12-20T05:17:14;3.10;;;1.92;;
83055;SDS011;72881;43.514;1.510;2023-12-20T05:19:39;3.20;;;1.88;;
83055;SDS011;72881;43.514;1.510;2023-12-20T05:22:04;3.05;;;1.90;;
83055;SDS011;72881;43.514;1.510;2023-12-20T05:24:30;2.60;;;1.77;;
83055;SDS011;72881;43.514;1.510;2023-12-20T05:26:55;3.03;;;1.75;;
83055;SDS011;72881;43.514;1.510;2023-12-20T05:29:20;2.80;;;1.83;;
83055;SDS011;72881;43.514;1.510;2023-12-20T05:31:46;2.47;;;1.75;;
83055;SDS011;72881;43.514;1.510;2023-12-20T05:34:11;2.50;;;1.70;;
83055;SDS011;72881;43.514;1.510;2023-12-20T05:36:37;1.83;;;1.40;;
83055;SDS011;72881;43.514;1.510;2023-12-20T05:39:03;2.17;;;1.50;;
83055;SDS011;72881;43.514;1.510;2023-12-20T05:41:30;3.08;;;1.70;;
83055;SDS011;72881;43.514;1.510;2023-12-20T05:43:55;3.17;;;1.73;;
83055;SDS011;72881;43.514;1.510;2023-12-20T05:46:23;2.65;;;1.60;;
83055;SDS011;72881;43.514;1.510;2023-12-20T05:48:48;2.42;;;1.40;;
83055;SDS011;72881;43.514;1.510;2023-12-20T05:51:14;2.00;;;1.35;;
83055;SDS011;72881;43.514;1.510;2023-12-20T05:53:39;2.35;;;1.67;;
83055;SDS011;72881;43.514;1.510;2023-12-20T05:56:05;2.20;;;1.60;;
83055;SDS011;72881;43.514;1.510;2023-12-20T05:58:31;2.42;;;1.50;;
83055;SDS011;72881;43.514;1.510;2023-12-20T06:00:57;2.33;;;1.40;;
83055;SDS011;72881;43.514;1.510;2023-12-20T06:03:23;1.80;;;1.25;;
83055;SDS011;72881;43.514;1.510;2023-12-20T06:05:48;2.20;;;1.42;;
83055;SDS011;72881;43.514;1.510;2023-12-20T06:08:13;2.20;;;1.30;;
83055;SDS011;72881;43.514;1.510;2023-12-20T06:10:39;2.15;;;1.30;;
83055;SDS011;72881;43.514;1.510;2023-12-20T06:13:05;2.30;;;1.23;;
83055;SDS011;72881;43.514;1.510;2023-12-20T06:15:31;1.98;;;1.30;;
83055;SDS011;72881;43.514;1.510;2023-12-20T06:17:57;1.63;;;1.20;;
83055;SDS011;72881;43.514;1.510;2023-12-20T06:20:23;1.77;;;1.10;;
83055;SDS011;72881;43.514;1.510;2023-12-20T06:22:48;1.80;;;1.08;;
83055;SDS011;72881;43.514;1.510;2023-12-20T06:25:13;2.03;;;1.15;;
83055;SDS011;72881;43.514;1.510;2023-12-20T06:27:39;2.00;;;1.20;;
83055;SDS011;72881;43.514;1.510;2023-12-20T06:30:06;1.50;;;1.00;;
83055;SDS011;72881;43.514;1.510;2023-12-20T06:32:32;1.58;;;1.05;;
83055;SDS011;72881;43.514;1.510;2023-12-20T06:34:59;1.67;;;1.00;;
83055;SDS011;72881;43.514;1.510;2023-12-20T06:37:24;1.50;;;1.05;;
83055;SDS011;72881;43.514;1.510;2023-12-20T06:39:50;1.40;;;0.90;;
83055;SDS011;72881;43.514;1.510;2023-12-20T06:42:15;1.77;;;1.13;;
83055;SDS011;72881;43.514;1.510;2023-12-20T06:44:41;1.65;;;0.95;;
83055;SDS011;72881;43.514;1.510;2023-12-20T06:47:06;1.50;;;0.98;;
83055;SDS011;72881;43.514;1.510;2023-12-20T06:49:32;1.52;;;0.90;;
83055;SDS011;72881;43.514;1.510;2023-12-20T06:51:57;1.40;;;0.90;;
83055;SDS011;72881;43.514;1.510;2023-12-20T06:54:22;1.58;;;0.80;;
83055;SDS011;72881;43.514;1.510;2023-12-20T06:56:48;1.63;;;0.90;;
83055;SDS011;72881;43.514;1.510;2023-12-20T06:59:13;1.40;;;0.82;;
83055;SDS011;72881;43.514;1.510;2023-12-20T07:01:39;1.35;;;0.80;;
83055;SDS011;72881;43.514;1.510;2023-12-20T07:04:04;1.33;;;0.73;;
83055;SDS011;72881;43.514;1.510;2023-12-20T07:06:29;1.65;;;0.70;;
83055;SDS011;72881;43.514;1.510;2023-12-20T07:08:55;1.42;;;0.82;;
83055;SDS011;72881;43.514;1.510;2023-12-20T07:11:20;1.10;;;0.60;;
83055;SDS011;72881;43.514;1.510;2023-12-20T07:13:46;1.40;;;0.80;;
83055;SDS011;72881;43.514;1.510;2023-12-20T07:16:11;1.20;;;0.80;;
83055;SDS011;72881;43.514;1.510;2023-12-20T07:18:38;1.27;;;0.70;;
83055;SDS011;72881;43.514;1.510;2023-12-20T07:21:03;0.80;;;0.50;;
83055;SDS011;72881;43.514;1.510;2023-12-20T07:23:29;1.38;;;0.65;;
83055;SDS011;72881;43.514;1.510;2023-12-20T07:25:54;1.00;;;0.50;;
83055;SDS011;72881;43.514;1.510;2023-12-20T07:28:20;0.90;;;0.50;;
83055;SDS011;72881;43.514;1.510;2023-12-20T07:30:45;1.25;;;0.60;;
83055;SDS011;72881;43.514;1.510;2023-12-20T07:33:11;1.00;;;0.50;;
83055;SDS011;72881;43.514;1.510;2023-12-20T07:35:37;2.45;;;0.63;;
83055;SDS011;72881;43.514;1.510;2023-12-20T07:38:03;0.80;;;0.50;;
83055;SDS011;72881;43.514;1.510;2023-12-20T07:40:28;1.10;;;0.50;;
83055;SDS011;72881;43.514;1.510;2023-12-20T07:42:55;0.90;;;0.47;;
83055;SDS011;72881;43.514;1.510;2023-12-20T07:45:21;0.80;;;0.50;;
83055;SDS011;72881;43.514;1.510;2023-12-20T07:47:46;0.98;;;0.60;;
83055;SDS011;72881;43.514;1.510;2023-12-20T07:50:12;0.90;;;0.50;;
83055;SDS011;72881;43.514;1.510;2023-12-20T07:52:37;0.60;;;0.43;;
83055;SDS011;72881;43.514;1.510;2023-12-20T07:55:03;1.05;;;0.60;;
83055;SDS011;72881;43.514;1.510;2023-12-20T07:57:29;1.13;;;0.60;;
83055;SDS011;72881;43.514;1.510;2023-12-20T07:59:55;1.67;;;0.55;;
83055;SDS011;72881;43.514;1.510;2023-12-20T08:02:21;1.63;;;0.60;;
83055;SDS011;72881;43.514;1.510;2023-12-20T08:04:46;1.10;;;0.60;;
83055;SDS011;72881;43.514;1.510;2023-12-20T08:07:12;1.92;;;0.60;;
83055;SDS011;72881;43.514;1.510;2023-12-20T08:09:37;1.17;;;0.50;;
83055;SDS011;72881;43.514;1.510;2023-12-20T08:12:03;1.20;;;0.60;;
83055;SDS011;72881;43.514;1.510;2023-12-20T08:14:28;1.08;;;0.40;;
83055;SDS011;72881;43.514;1.510;2023-12-20T08:16:54;1.58;;;0.50;;
83055;SDS011;72881;43.514;1.510;2023-12-20T08:19:19;2.55;;;0.50;;
83055;SDS011;72881;43.514;1.510;2023-12-20T08:21:45;0.73;;;0.55;;
83055;SDS011;72881;43.514;1.510;2023-12-20T08:24:10;2.88;;;0.57;;
83055;SDS011;72881;43.514;1.510;2023-12-20T08:26:36;1.17;;;0.60;;
83055;SDS011;72881;43.514;1.510;2023-12-20T08:29:01;3.80;;;0.50;;
83055;SDS011;72881;43.514;1.510;2023-12-20T08:31:26;0.88;;;0.40;;
83055;SDS011;72881;43.514;1.510;2023-12-20T08:33:52;1.70;;;0.55;;
83055;SDS011;72881;43.514;1.510;2023-12-20T08:36:19;0.70;;;0.40;;
83055;SDS011;72881;43.514;1.510;2023-12-20T08:38:46;1.00;;;0.50;;
83055;SDS011;72881;43.514;1.510;2023-12-20T08:41:12;0.80;;;0.40;;
83055;SDS011;72881;43.514;1.510;2023-12-20T08:43:38;1.45;;;0.60;;
83055;SDS011;72881;43.514;1.510;2023-12-20T08:46:05;0.65;;;0.40;;
83055;SDS011;72881;43.514;1.510;2023-12-20T08:48:30;1.08;;;0.47;;
83055;SDS011;72881;43.514;1.510;2023-12-20T08:50:56;1.83;;;0.50;;
83055;SDS011;72881;43.514;1.510;2023-12-20T08:53:21;0.95;;;0.50;;
83055;SDS011;72881;43.514;1.510;2023-12-20T08:55:47;1.83;;;0.40;;
83055;SDS011;72881;43.514;1.510;2023-12-20T08:58:13;2.33;;;0.50;;
83055;SDS011;72881;43.514;1.510;2023-12-20T09:00:39;1.63;;;0.50;;
83055;SDS011;72881;43.514;1.510;2023-12-20T09:03:04;2.38;;;0.50;;
83055;SDS011;72881;43.514;1.510;2023-12-20T09:05:30;0.68;;;0.47;;
83055;SDS011;72881;43.514;1.510;2023-12-20T09:07:55;0.70;;;0.40;;
83055;SDS011;72881;43.514;1.510;2023-12-20T09:10:21;1.58;;;0.50;;
83055;SDS011;72881;43.514;1.510;2023-12-20T09:12:50;0.70;;;0.40;;
83055;SDS011;72881;43.514;1.510;2023-12-20T09:15:22;0.80;;;0.50;;
83055;SDS011;72881;43.514;1.510;2023-12-20T09:17:50;0.90;;;0.45;;
83055;SDS011;72881;43.514;1.510;2023-12-20T09:20:15;0.70;;;0.38;;
83055;SDS011;72881;43.514;1.510;2023-12-20T09:22:41;0.95;;;0.50;;
83055;SDS011;72881;43.514;1.510;2023-12-20T09:25:07;0.98;;;0.50;;
83055;SDS011;72881;43.514;1.510;2023-12-20T09:27:33;1.00;;;0.50;;
83055;SDS011;72881;43.514;1.510;2023-12-20T09:29:58;1.30;;;0.50;;
83055;SDS011;72881;43.514;1.510;2023-12-20T09:32:24;1.67;;;0.50;;
83055;SDS011;72881;43.514;1.510;2023-12-20T09:34:49;1.15;;;0.60;;
83055;SDS011;72881;43.514;1.510;2023-12-20T09:37:14;0.80;;;0.47;;
83055;SDS011;72881;43.514;1.510;2023-12-20T09:39:40;1.10;;;0.60;;
83055;SDS011;72881;43.514;1.510;2023-12-20T09:42:06;1.80;;;0.50;;
83055;SDS011;72881;43.514;1.510;2023-12-20T09:44:32;0.70;;;0.40;;
83055;SDS011;72881;43.514;1.510;2023-12-20T09:46:59;0.68;;;0.40;;
83055;SDS011;72881;43.514;1.510;2023-12-20T09:49:27;0.70;;;0.47;;
83055;SDS011;72881;43.514;1.510;2023-12-20T09:51:53;1.38;;;0.40;;
83055;SDS011;72881;43.514;1.510;2023-12-20T09:54:19;0.93;;;0.40;;
83055;SDS011;72881;43.514;1.510;2023-12-20T09:56:45;1.98;;;0.45;;
83055;SDS011;72881;43.514;1.510;2023-12-20T09:59:11;1.50;;;0.50;;
83055;SDS011;72881;43.514;1.510;2023-12-20T10:01:38;0.70;;;0.43;;
83055;SDS011;72881;43.514;1.510;2023-12-20T10:04:08;0.57;;;0.40;;
83055;SDS011;72881;43.514;1.510;2023-12-20T10:06:37;0.90;;;0.50;;
83055;SDS011;72881;43.514;1.510;2023-12-20T10:09:04;0.90;;;0.40;;
83055;SDS011;72881;43.514;1.510;2023-12-20T10:11:29;1.40;;;0.50;;
83055;SDS011;72881;43.514;1.510;2023-12-20T10:14:01;1.00;;;0.52;;
83055;SDS011;72881;43.514;1.510;2023-12-20T10:16:27;1.48;;;0.50;;
83055;SDS011;72881;43.514;1.510;2023-12-20T10:18:53;1.00;;;0.50;;
83055;SDS011;72881;43.514;1.510;2023-12-20T10:21:19;2.17;;;0.40;;
83055;SDS011;72881;43.514;1.510;2023-12-20T10:23:45;2.70;;;0.52;;
83055;SDS011;72881;43.514;1.510;2023-12-20T10:26:18;1.00;;;0.40;;
83055;SDS011;72881;43.514;1.510;2023-12-20T10:28:44;1.02;;;0.40;;
83055;SDS011;72881;43.514;1.510;2023-12-20T10:31:10;1.20;;;0.57;;
83055;SDS011;72881;43.514;1.510;2023-12-20T10:33:36;1.00;;;0.50;;
83055;SDS011;72881;43.514;1.510;2023-12-20T10:36:01;1.35;;;0.40;;
83055;SDS011;72881;43.514;1.510;2023-12-20T10:38:27;2.42;;;0.40;;
83055;SDS011;72881;43.514;1.510;2023-12-20T10:40:56;9.07;;;0.70;;
83055;SDS011;72881;43.514;1.510;2023-12-20T10:43:26;4.47;;;0.80;;
83055;SDS011;72881;43.514;1.510;2023-12-20T10:45:53;4.55;;;0.60;;
83055;SDS011;72881;43.514;1.510;2023-12-20T10:48:19;8.48;;;0.90;;
83055;SDS011;72881;43.514;1.510;2023-12-20T10:50:46;9.32;;;0.60;;
83055;SDS011;72881;43.514;1.510;2023-12-20T10:53:12;3.85;;;0.60;;
83055;SDS011;72881;43.514;1.510;2023-12-20T10:55:38;4.85;;;0.65;;
83055;SDS011;72881;43.514;1.510;2023-12-20T10:58:07;6.57;;;0.80;;
83055;SDS011;72881;43.514;1.510;2023-12-20T11:00:35;3.17;;;0.70;;
83055;SDS011;72881;43.514;1.510;2023-12-20T11:03:04;3.75;;;0.70;;
83055;SDS011;72881;43.514;1.510;2023-12-20T11:08:26;1.65;;;0.50;;
83055;SDS011;72881;43.514;1.510;2023-12-20T11:11:03;2.85;;;0.57;;
83055;SDS011;72881;43.514;1.510;2023-12-20T11:13:36;2.83;;;0.63;;
83055;SDS011;72881;43.514;1.510;2023-12-20T11:16:05;3.45;;;0.55;;
83055;SDS011;72881;43.514;1.510;2023-12-20T11:18:31;1.98;;;0.50;;
83055;SDS011;72881;43.514;1.510;2023-12-20T11:21:01;1.83;;;0.40;;
83055;SDS011;72881;43.514;1.510;2023-12-20T11:23:29;2.45;;;0.90;;
83055;SDS011;72881;43.514;1.510;2023-12-20T11:25:56;4.47;;;0.70;;
83055;SDS011;72881;43.514;1.510;2023-12-20T11:28:25;5.38;;;1.00;;
83055;SDS011;72881;43.514;1.510;2023-12-20T11:30:55;3.40;;;1.23;;
83055;SDS011;72881;43.514;1.510;2023-12-20T11:33:22;1.98;;;0.80;;
83055;SDS011;72881;43.514;1.510;2023-12-20T11:35:49;2.67;;;0.73;;
83055;SDS011;72881;43.514;1.510;2023-12-20T11:38:14;4.13;;;0.80;;
83055;SDS011;72881;43.514;1.510;2023-12-20T11:40:43;3.05;;;0.80;;
83055;SDS011;72881;43.514;1.510;2023-12-20T11:43:09;2.40;;;0.70;;
83055;SDS011;72881;43.514;1.510;2023-12-20T11:45:34;3.90;;;0.70;;
83055;SDS011;72881;43.514;1.510;2023-12-20T11:48:00;2.88;;;0.82;;
83055;SDS011;72881;43.514;1.510;2023-12-20T11:50:27;2.22;;;0.80;;
83055;SDS011;72881;43.514;1.510;2023-12-20T11:52:54;3.63;;;0.65;;
83055;SDS011;72881;43.514;1.510;2023-12-20T11:55:21;3.85;;;0.80;;
83055;SDS011;72881;43.514;1.510;2023-12-20T11:57:46;1.35;;;0.50;;
83055;SDS011;72881;43.514;1.510;2023-12-20T12:00:13;2.28;;;0.70;;
83055;SDS011;72881;43.514;1.510;2023-12-20T12:02:39;1.67;;;0.63;;
83055;SDS011;72881;43.514;1.510;2023-12-20T12:05:04;2.13;;;0.52;;
83055;SDS011;72881;43.514;1.510;2023-12-20T12:07:31;2.97;;;0.60;;
83055;SDS011;72881;43.514;1.510;2023-12-20T12:09:56;2.72;;;0.68;;
83055;SDS011;72881;43.514;1.510;2023-12-20T12:12:22;2.60;;;0.73;;
83055;SDS011;72881;43.514;1.510;2023-12-20T12:14:48;2.45;;;0.65;;
83055;SDS011;72881;43.514;1.510;2023-12-20T12:17:14;1.88;;;0.70;;
83055;SDS011;72881;43.514;1.510;2023-12-20T12:19:40;1.80;;;0.55;;
83055;SDS011;72881;43.514;1.510;2023-12-20T12:22:13;2.67;;;0.60;;
83055;SDS011;72881;43.514;1.510;2023-12-20T12:24:40;1.88;;;0.73;;
83055;SDS011;72881;43.514;1.510;2023-12-20T12:27:06;3.53;;;0.77;;
83055;SDS011;72881;43.514;1.510;2023-12-20T12:29:33;1.70;;;0.50;;
83055;SDS011;72881;43.514;1.510;2023-12-20T12:31:59;1.58;;;0.57;;
83055;SDS011;72881;43.514;1.510;2023-12-20T12:34:27;2.75;;;0.70;;
83055;SDS011;72881;43.514;1.510;2023-12-20T12:36:53;1.30;;;0.50;;
83055;SDS011;72881;43.514;1.510;2023-12-20T12:39:18;2.40;;;0.60;;
83055;SDS011;72881;43.514;1.510;2023-12-20T12:41:44;1.48;;;0.68;;
83055;SDS011;72881;43.514;1.510;2023-12-20T12:44:10;2.90;;;0.73;;
83055;SDS011;72881;43.514;1.510;2023-12-20T12:46:35;2.28;;;0.70;;
83055;SDS011;72881;43.514;1.510;2023-12-20T12:49:01;2.67;;;0.70;;
83055;SDS011;72881;43.514;1.510;2023-12-20T12:51:26;2.05;;;0.75;;
83055;SDS011;72881;43.514;1.510;2023-12-20T12:53:52;1.50;;;0.55;;
83055;SDS011;72881;43.514;1.510;2023-12-20T12:56:18;2.28;;;0.68;;
83055;SDS011;72881;43.514;1.510;2023-12-20T12:58:43;1.45;;;0.60;;
83055;SDS011;72881;43.514;1.510;2023-12-20T13:01:09;1.90;;;0.60;;
83055;SDS011;72881;43.514;1.510;2023-12-20T13:03:34;2.63;;;0.88;;
83055;SDS011;72881;43.514;1.510;2023-12-20T13:06:00;1.52;;;0.65;;
83055;SDS011;72881;43.514;1.510;2023-12-20T13:08:26;2.38;;;0.65;;
83055;SDS011;72881;43.514;1.510;2023-12-20T13:10:51;1.67;;;0.70;;
83055;SDS011;72881;43.514;1.510;2023-12-20T13:13:17;2.72;;;0.60;;
83055;SDS011;72881;43.514;1.510;2023-12-20T13:15:42;2.03;;;0.60;;
83055;SDS011;72881;43.514;1.510;2023-12-20T13:18:13;1.90;;;0.60;;
83055;SDS011;72881;43.514;1.510;2023-12-20T13:20:38;1.40;;;0.50;;
83055;SDS011;72881;43.514;1.510;2023-12-20T13:23:05;2.88;;;0.63;;
83055;SDS011;72881;43.514;1.510;2023-12-20T13:25:30;1.65;;;0.60;;
83055;SDS011;72881;43.514;1.510;2023-12-20T13:27:56;0.85;;;0.43;;
83055;SDS011;72881;43.514;1.510;2023-12-20T13:30:21;1.85;;;0.57;;
83055;SDS011;72881;43.514;1.510;2023-12-20T13:32:47;2.42;;;0.70;;
83055;SDS011;72881;43.514;1.510;2023-12-20T13:35:12;1.58;;;0.52;;
83055;SDS011;72881;43.514;1.510;2023-12-20T13:37:38;1.65;;;0.50;;
83055;SDS011;72881;43.514;1.510;2023-12-20T13:40:04;1.92;;;0.65;;
83055;SDS011;72881;43.514;1.510;2023-12-20T13:42:31;1.33;;;0.40;;
83055;SDS011;72881;43.514;1.510;2023-12-20T13:44:56;1.75;;;0.50;;
83055;SDS011;72881;43.514;1.510;2023-12-20T13:47:21;2.17;;;0.57;;
83055;SDS011;72881;43.514;1.510;2023-12-20T13:49:47;2.90;;;0.60;;
83055;SDS011;72881;43.514;1.510;2023-12-20T13:52:13;1.40;;;0.40;;
83055;SDS011;72881;43.514;1.510;2023-12-20T13:54:38;2.08;;;0.50;;
83055;SDS011;72881;43.514;1.510;2023-12-20T13:57:04;1.38;;;0.50;;
83055;SDS011;72881;43.514;1.510;2023-12-20T13:59:30;1.38;;;0.43;;
83055;SDS011;72881;43.514;1.510;2023-12-20T14:01:56;1.95;;;0.60;;
83055;SDS011;72881;43.514;1.510;2023-12-20T14:04:22;1.60;;;0.68;;
83055;SDS011;72881;43.514;1.510;2023-12-20T14:06:47;2.83;;;0.55;;
83055;SDS011;72881;43.514;1.510;2023-12-20T14:09:13;2.15;;;0.68;;
83055;SDS011;72881;43.514;1.510;2023-12-20T14:11:39;1.30;;;0.45;;
83055;SDS011;72881;43.514;1.510;2023-12-20T14:14:06;1.92;;;0.55;;
83055;SDS011;72881;43.514;1.510;2023-12-20T14:16:33;2.15;;;0.60;;
83055;SDS011;72881;43.514;1.510;2023-12-20T14:18:58;2.35;;;0.63;;
83055;SDS011;72881;43.514;1.510;2023-12-20T14:21:24;1.48;;;0.50;;
83055;SDS011;72881;43.514;1.510;2023-12-20T14:23:49;1.27;;;0.55;;
83055;SDS011;72881;43.514;1.510;2023-12-20T14:26:15;1.38;;;0.45;;
83055;SDS011;72881;43.514;1.510;2023-12-20T14:28:41;1.73;;;0.47;;
83055;SDS011;72881;43.514;1.510;2023-12-20T14:31:07;1.40;;;0.60;;
83055;SDS011;72881;43.514;1.510;2023-12-20T14:33:33;1.95;;;0.52;;
83055;SDS011;72881;43.514;1.510;2023-12-20T14:35:59;1.77;;;0.50;;
83055;SDS011;72881;43.514;1.510;2023-12-20T14:38:25;2.28;;;0.63;;
83055;SDS011;72881;43.514;1.510;2023-12-20T14:40:50;1.65;;;0.75;;
83055;SDS011;72881;43.514;1.510;2023-12-20T14:43:16;2.92;;;0.47;;